This is the latest recevied weather packets stored in our database for station/object KI6AOK. If no packets are shown the sender has not sent any weather packets the latest 10 day(s).
| Time | Temp. | Humidity | Pressure | Rain* | Wind** | Luminosity | Snow |
|---|---|---|---|---|---|---|---|
| 1777858308 | 17.22° C | 62% | 1013.7 hPa | 0 mm | - | 33 W/m² | - |
| 1777858005 | 16.67° C | 62% | 1013.6 hPa | 0 mm | - | 61 W/m² | - |
| 1777857703 | 17.22° C | 61% | 1013.5 hPa | 0 mm | - | 77 W/m² | - |
| 1777857399 | 17.22° C | 61% | 1013.7 hPa | 0 mm | - | 40 W/m² | - |
| 1777857096 | 17.22° C | 61% | 1013.3 hPa | 0 mm | - | 62 W/m² | - |
| 1777856792 | 17.22° C | 60% | 1013.4 hPa | 0 mm | - | 75 W/m² | - |
| 1777856488 | 17.22° C | 60% | 1013.6 hPa | 0 mm | - | 67 W/m² | - |
| 1777856185 | 17.22° C | 59% | 1013.3 hPa | 0 mm | - | 72 W/m² | - |
| 1777855882 | 17.78° C | 58% | 1013.1 hPa | 0 mm | - | 82 W/m² | - |
| 1777855580 | 17.78° C | 58% | 1013 hPa | 0 mm | - | 92 W/m² | - |
| 1777855277 | 17.78° C | 57% | 1013.3 hPa | 0 mm | - | 95 W/m² | - |
| 1777854973 | 17.78° C | 56% | 1013 hPa | 0 mm | - | 89 W/m² | - |
| 1777854670 | 18.33° C | 55% | 1013 hPa | 0 mm | - | 105 W/m² | - |
| 1777854366 | 18.89° C | 54% | 1013 hPa | 0 mm | - | 140 W/m² | - |
| 1777854064 | 20° C | 50% | 1012.9 hPa | 0 mm | - | 173 W/m² | - |
| 1777853762 | 20° C | 51% | 1012.8 hPa | 0 mm | - | 317 W/m² | - |
| 1777853457 | 20.56° C | 50% | 1012.8 hPa | 0 mm | - | 315 W/m² | - |
| 1777853155 | 20.56° C | 49% | 1012.6 hPa | 0 mm | - | 372 W/m² | - |
| 1777852852 | 20° C | 50% | 1012.6 hPa | 0 mm | - | 394 W/m² | - |
| 1777852550 | 20° C | 49% | 1012.5 hPa | 0 mm | - | 394 W/m² | - |
| 1777852247 | 20° C | 51% | 1012.5 hPa | 0 mm | - | 382 W/m² | - |
| 1777851945 | 20° C | 51% | 1012.4 hPa | 0 mm | - | 210 W/m² | - |
| 1777851643 | 20.56° C | 48% | 1012.4 hPa | 0 mm | - | 331 W/m² | - |
| 1777851339 | 20.56° C | 50% | 1012.2 hPa | 0 mm | - | 473 W/m² | - |
| 1777851035 | 20.56° C | 49% | 1012.7 hPa | 0 mm | - | 325 W/m² | - |
* Rain latest hour (hover to see other rain measurements)
** Current wind speed in m/s (hover to see current wind gust speed)